sensor_id;sensor_type;location;lat;lon;timestamp;P1;durP1;ratioP1;P2;durP2;ratioP2
21860;SDS011;11095;48.066;8.540;2022-12-10T00:00:22;38.40;;;21.40;;
21860;SDS011;11095;48.066;8.540;2022-12-10T00:02:49;45.22;;;23.27;;
21860;SDS011;11095;48.066;8.540;2022-12-10T00:05:15;43.45;;;22.42;;
21860;SDS011;11095;48.066;8.540;2022-12-10T00:07:40;46.75;;;23.63;;
21860;SDS011;11095;48.066;8.540;2022-12-10T00:10:06;50.78;;;25.60;;
21860;SDS011;11095;48.066;8.540;2022-12-10T00:12:32;43.35;;;22.92;;
21860;SDS011;11095;48.066;8.540;2022-12-10T00:14:57;44.75;;;23.30;;
21860;SDS011;11095;48.066;8.540;2022-12-10T00:17:23;41.90;;;23.08;;
21860;SDS011;11095;48.066;8.540;2022-12-10T00:19:49;43.25;;;22.95;;
21860;SDS011;11095;48.066;8.540;2022-12-10T00:22:14;38.35;;;21.38;;
21860;SDS011;11095;48.066;8.540;2022-12-10T00:24:40;39.15;;;21.70;;
21860;SDS011;11095;48.066;8.540;2022-12-10T00:27:06;39.75;;;20.83;;
21860;SDS011;11095;48.066;8.540;2022-12-10T00:29:31;42.05;;;22.08;;
21860;SDS011;11095;48.066;8.540;2022-12-10T00:31:57;44.38;;;22.58;;
21860;SDS011;11095;48.066;8.540;2022-12-10T00:34:22;44.42;;;21.90;;
21860;SDS011;11095;48.066;8.540;2022-12-10T00:36:48;46.90;;;23.20;;
21860;SDS011;11095;48.066;8.540;2022-12-10T00:39:18;37.45;;;20.40;;
21860;SDS011;11095;48.066;8.540;2022-12-10T00:41:45;42.42;;;21.40;;
21860;SDS011;11095;48.066;8.540;2022-12-10T00:44:11;42.80;;;21.50;;
21860;SDS011;11095;48.066;8.540;2022-12-10T00:46:37;46.40;;;23.52;;
21860;SDS011;11095;48.066;8.540;2022-12-10T00:49:03;42.97;;;22.83;;
21860;SDS011;11095;48.066;8.540;2022-12-10T00:51:30;43.28;;;21.75;;
21860;SDS011;11095;48.066;8.540;2022-12-10T00:53:56;45.22;;;23.25;;
21860;SDS011;11095;48.066;8.540;2022-12-10T00:56:24;45.45;;;22.85;;
21860;SDS011;11095;48.066;8.540;2022-12-10T00:58:51;45.40;;;23.40;;
21860;SDS011;11095;48.066;8.540;2022-12-10T01:03:52;48.85;;;24.30;;
21860;SDS011;11095;48.066;8.540;2022-12-10T01:08:53;53.30;;;25.67;;
21860;SDS011;11095;48.066;8.540;2022-12-10T01:11:22;51.70;;;25.70;;
21860;SDS011;11095;48.066;8.540;2022-12-10T01:13:51;52.25;;;25.95;;
21860;SDS011;11095;48.066;8.540;2022-12-10T01:16:17;48.22;;;24.67;;
21860;SDS011;11095;48.066;8.540;2022-12-10T01:18:44;48.58;;;25.38;;
21860;SDS011;11095;48.066;8.540;2022-12-10T01:21:12;50.30;;;25.77;;
21860;SDS011;11095;48.066;8.540;2022-12-10T01:23:40;51.33;;;25.45;;
21860;SDS011;11095;48.066;8.540;2022-12-10T01:26:09;54.45;;;25.88;;
21860;SDS011;11095;48.066;8.540;2022-12-10T01:28:38;60.00;;;27.57;;
21860;SDS011;11095;48.066;8.540;2022-12-10T01:31:05;55.30;;;26.63;;
21860;SDS011;11095;48.066;8.540;2022-12-10T01:33:39;56.72;;;28.30;;
21860;SDS011;11095;48.066;8.540;2022-12-10T01:36:06;59.72;;;28.85;;
21860;SDS011;11095;48.066;8.540;2022-12-10T01:38:35;62.78;;;28.85;;
21860;SDS011;11095;48.066;8.540;2022-12-10T01:41:01;63.97;;;29.73;;
21860;SDS011;11095;48.066;8.540;2022-12-10T01:43:27;65.18;;;29.10;;
21860;SDS011;11095;48.066;8.540;2022-12-10T01:46:12;67.95;;;30.58;;
21860;SDS011;11095;48.066;8.540;2022-12-10T01:48:38;63.50;;;29.58;;
21860;SDS011;11095;48.066;8.540;2022-12-10T01:51:03;72.05;;;31.25;;
21860;SDS011;11095;48.066;8.540;2022-12-10T01:53:29;75.50;;;32.13;;
21860;SDS011;11095;48.066;8.540;2022-12-10T01:55:56;74.65;;;33.70;;
21860;SDS011;11095;48.066;8.540;2022-12-10T01:58:22;75.00;;;32.28;;
21860;SDS011;11095;48.066;8.540;2022-12-10T02:11:58;87.85;;;36.05;;
21860;SDS011;11095;48.066;8.540;2022-12-10T02:17:05;105.47;;;37.65;;
21860;SDS011;11095;48.066;8.540;2022-12-10T02:19:54;107.43;;;38.20;;
21860;SDS011;11095;48.066;8.540;2022-12-10T02:25:17;103.30;;;36.28;;
21860;SDS011;11095;48.066;8.540;2022-12-10T02:28:05;94.25;;;35.00;;
21860;SDS011;11095;48.066;8.540;2022-12-10T02:30:33;81.60;;;32.55;;
21860;SDS011;11095;48.066;8.540;2022-12-10T02:33:01;93.65;;;33.67;;
21860;SDS011;11095;48.066;8.540;2022-12-10T02:35:30;88.88;;;33.25;;
21860;SDS011;11095;48.066;8.540;2022-12-10T02:38:18;90.72;;;33.97;;
21860;SDS011;11095;48.066;8.540;2022-12-10T02:40:54;82.97;;;33.67;;
21860;SDS011;11095;48.066;8.540;2022-12-10T02:43:27;76.50;;;31.75;;
21860;SDS011;11095;48.066;8.540;2022-12-10T02:45:54;87.57;;;32.72;;
21860;SDS011;11095;48.066;8.540;2022-12-10T02:48:21;81.22;;;32.17;;
21860;SDS011;11095;48.066;8.540;2022-12-10T02:50:48;78.70;;;32.42;;
21860;SDS011;11095;48.066;8.540;2022-12-10T02:53:13;77.18;;;30.33;;
21860;SDS011;11095;48.066;8.540;2022-12-10T03:01:00;81.68;;;32.47;;
21860;SDS011;11095;48.066;8.540;2022-12-10T03:06:22;75.97;;;29.90;;
21860;SDS011;11095;48.066;8.540;2022-12-10T03:09:06;74.82;;;29.70;;
21860;SDS011;11095;48.066;8.540;2022-12-10T03:11:34;70.32;;;29.48;;
21860;SDS011;11095;48.066;8.540;2022-12-10T03:14:05;76.90;;;29.98;;
21860;SDS011;11095;48.066;8.540;2022-12-10T03:16:42;77.65;;;30.33;;
21860;SDS011;11095;48.066;8.540;2022-12-10T03:19:18;76.50;;;30.52;;
21860;SDS011;11095;48.066;8.540;2022-12-10T03:21:47;77.88;;;30.85;;
21860;SDS011;11095;48.066;8.540;2022-12-10T03:24:13;80.38;;;32.85;;
21860;SDS011;11095;48.066;8.540;2022-12-10T03:26:41;83.50;;;32.58;;
21860;SDS011;11095;48.066;8.540;2022-12-10T03:29:09;76.75;;;30.30;;
21860;SDS011;11095;48.066;8.540;2022-12-10T03:31:50;81.18;;;31.23;;
21860;SDS011;11095;48.066;8.540;2022-12-10T03:34:17;79.57;;;31.55;;
21860;SDS011;11095;48.066;8.540;2022-12-10T03:36:43;87.03;;;33.50;;
21860;SDS011;11095;48.066;8.540;2022-12-10T03:39:09;82.55;;;32.13;;
21860;SDS011;11095;48.066;8.540;2022-12-10T03:41:36;81.38;;;31.27;;
21860;SDS011;11095;48.066;8.540;2022-12-10T03:44:02;80.90;;;30.83;;
21860;SDS011;11095;48.066;8.540;2022-12-10T03:46:28;79.07;;;30.52;;
21860;SDS011;11095;48.066;8.540;2022-12-10T03:48:56;80.35;;;31.63;;
21860;SDS011;11095;48.066;8.540;2022-12-10T03:51:23;83.35;;;31.30;;
21860;SDS011;11095;48.066;8.540;2022-12-10T03:53:48;89.70;;;33.00;;
21860;SDS011;11095;48.066;8.540;2022-12-10T03:56:15;86.28;;;32.75;;
21860;SDS011;11095;48.066;8.540;2022-12-10T03:58:41;83.35;;;31.63;;
21860;SDS011;11095;48.066;8.540;2022-12-10T04:01:07;87.30;;;31.67;;
21860;SDS011;11095;48.066;8.540;2022-12-10T04:03:39;104.95;;;32.53;;
21860;SDS011;11095;48.066;8.540;2022-12-10T04:06:07;88.93;;;31.38;;
21860;SDS011;11095;48.066;8.540;2022-12-10T04:08:35;107.93;;;33.95;;
21860;SDS011;11095;48.066;8.540;2022-12-10T04:11:05;96.63;;;33.45;;
21860;SDS011;11095;48.066;8.540;2022-12-10T04:13:32;78.82;;;29.15;;
21860;SDS011;11095;48.066;8.540;2022-12-10T04:16:17;94.03;;;32.22;;
21860;SDS011;11095;48.066;8.540;2022-12-10T04:19:03;107.10;;;34.00;;
21860;SDS011;11095;48.066;8.540;2022-12-10T04:21:31;118.22;;;33.60;;
21860;SDS011;11095;48.066;8.540;2022-12-10T04:24:16;121.00;;;33.42;;
21860;SDS011;11095;48.066;8.540;2022-12-10T04:27:11;123.60;;;33.47;;
21860;SDS011;11095;48.066;8.540;2022-12-10T04:29:41;116.40;;;35.03;;
21860;SDS011;11095;48.066;8.540;2022-12-10T04:32:06;96.13;;;33.00;;
21860;SDS011;11095;48.066;8.540;2022-12-10T04:34:32;109.95;;;34.35;;
21860;SDS011;11095;48.066;8.540;2022-12-10T04:36:58;90.75;;;33.10;;
21860;SDS011;11095;48.066;8.540;2022-12-10T04:39:25;148.95;;;36.83;;
21860;SDS011;11095;48.066;8.540;2022-12-10T04:41:51;157.20;;;39.30;;
21860;SDS011;11095;48.066;8.540;2022-12-10T04:44:17;144.85;;;37.50;;
21860;SDS011;11095;48.066;8.540;2022-12-10T04:46:43;132.68;;;37.35;;
21860;SDS011;11095;48.066;8.540;2022-12-10T04:49:09;149.07;;;37.60;;
21860;SDS011;11095;48.066;8.540;2022-12-10T04:51:35;128.13;;;37.10;;
21860;SDS011;11095;48.066;8.540;2022-12-10T04:54:01;121.78;;;35.92;;
21860;SDS011;11095;48.066;8.540;2022-12-10T04:56:27;133.38;;;36.65;;
21860;SDS011;11095;48.066;8.540;2022-12-10T04:58:54;125.90;;;36.28;;
21860;SDS011;11095;48.066;8.540;2022-12-10T05:01:21;143.75;;;37.85;;
21860;SDS011;11095;48.066;8.540;2022-12-10T05:03:47;120.18;;;35.90;;
21860;SDS011;11095;48.066;8.540;2022-12-10T05:06:13;120.95;;;35.42;;
21860;SDS011;11095;48.066;8.540;2022-12-10T05:08:40;123.28;;;34.97;;
21860;SDS011;11095;48.066;8.540;2022-12-10T05:11:08;131.32;;;36.92;;
21860;SDS011;11095;48.066;8.540;2022-12-10T05:13:36;125.93;;;35.78;;
21860;SDS011;11095;48.066;8.540;2022-12-10T05:16:02;114.50;;;35.38;;
21860;SDS011;11095;48.066;8.540;2022-12-10T05:18:29;114.45;;;35.15;;
21860;SDS011;11095;48.066;8.540;2022-12-10T05:20:57;116.28;;;34.88;;
21860;SDS011;11095;48.066;8.540;2022-12-10T05:23:24;95.43;;;31.52;;
21860;SDS011;11095;48.066;8.540;2022-12-10T05:28:28;120.70;;;34.97;;
21860;SDS011;11095;48.066;8.540;2022-12-10T05:30:54;109.75;;;33.83;;
21860;SDS011;11095;48.066;8.540;2022-12-10T05:33:20;107.90;;;34.08;;
21860;SDS011;11095;48.066;8.540;2022-12-10T05:35:56;106.65;;;33.42;;
21860;SDS011;11095;48.066;8.540;2022-12-10T05:38:24;107.53;;;34.15;;
21860;SDS011;11095;48.066;8.540;2022-12-10T05:40:50;106.40;;;32.53;;
21860;SDS011;11095;48.066;8.540;2022-12-10T05:43:16;101.97;;;31.33;;
21860;SDS011;11095;48.066;8.540;2022-12-10T05:45:42;102.38;;;32.17;;
21860;SDS011;11095;48.066;8.540;2022-12-10T05:48:12;99.38;;;32.90;;
21860;SDS011;11095;48.066;8.540;2022-12-10T05:50:39;94.93;;;31.15;;
21860;SDS011;11095;48.066;8.540;2022-12-10T05:53:05;95.43;;;32.28;;
21860;SDS011;11095;48.066;8.540;2022-12-10T05:55:31;93.65;;;31.20;;
21860;SDS011;11095;48.066;8.540;2022-12-10T05:57:58;101.63;;;32.90;;
21860;SDS011;11095;48.066;8.540;2022-12-10T06:00:24;94.05;;;31.40;;
21860;SDS011;11095;48.066;8.540;2022-12-10T06:02:51;91.80;;;31.33;;
21860;SDS011;11095;48.066;8.540;2022-12-10T06:05:17;87.18;;;30.20;;
21860;SDS011;11095;48.066;8.540;2022-12-10T06:07:43;88.60;;;29.23;;
21860;SDS011;11095;48.066;8.540;2022-12-10T06:10:09;81.65;;;29.98;;
21860;SDS011;11095;48.066;8.540;2022-12-10T06:12:36;76.72;;;28.48;;
21860;SDS011;11095;48.066;8.540;2022-12-10T06:15:02;85.75;;;29.50;;
21860;SDS011;11095;48.066;8.540;2022-12-10T06:17:28;77.75;;;28.38;;
21860;SDS011;11095;48.066;8.540;2022-12-10T06:19:54;72.80;;;27.13;;
21860;SDS011;11095;48.066;8.540;2022-12-10T06:22:20;73.68;;;27.30;;
21860;SDS011;11095;48.066;8.540;2022-12-10T06:24:45;71.70;;;27.10;;
21860;SDS011;11095;48.066;8.540;2022-12-10T06:27:11;69.30;;;26.85;;
21860;SDS011;11095;48.066;8.540;2022-12-10T06:29:36;68.60;;;27.83;;
21860;SDS011;11095;48.066;8.540;2022-12-10T06:32:02;66.75;;;26.17;;
21860;SDS011;11095;48.066;8.540;2022-12-10T06:34:28;63.42;;;25.92;;
21860;SDS011;11095;48.066;8.540;2022-12-10T06:36:54;59.78;;;25.27;;
21860;SDS011;11095;48.066;8.540;2022-12-10T06:39:20;62.30;;;25.13;;
21860;SDS011;11095;48.066;8.540;2022-12-10T06:41:46;56.20;;;23.05;;
21860;SDS011;11095;48.066;8.540;2022-12-10T06:44:11;61.75;;;24.00;;
21860;SDS011;11095;48.066;8.540;2022-12-10T06:46:38;54.75;;;24.42;;
21860;SDS011;11095;48.066;8.540;2022-12-10T06:49:05;55.92;;;23.73;;
21860;SDS011;11095;48.066;8.540;2022-12-10T06:51:31;57.25;;;23.50;;
21860;SDS011;11095;48.066;8.540;2022-12-10T06:53:57;55.58;;;23.55;;
21860;SDS011;11095;48.066;8.540;2022-12-10T06:56:22;57.70;;;23.55;;
21860;SDS011;11095;48.066;8.540;2022-12-10T06:58:48;56.38;;;23.73;;
21860;SDS011;11095;48.066;8.540;2022-12-10T07:01:15;52.60;;;22.90;;
21860;SDS011;11095;48.066;8.540;2022-12-10T07:03:49;55.92;;;22.48;;
21860;SDS011;11095;48.066;8.540;2022-12-10T07:06:15;54.55;;;23.92;;
21860;SDS011;11095;48.066;8.540;2022-12-10T07:08:41;56.38;;;23.30;;
21860;SDS011;11095;48.066;8.540;2022-12-10T07:11:08;55.17;;;22.85;;
21860;SDS011;11095;48.066;8.540;2022-12-10T07:13:37;54.25;;;23.23;;
21860;SDS011;11095;48.066;8.540;2022-12-10T07:16:03;59.13;;;23.98;;
21860;SDS011;11095;48.066;8.540;2022-12-10T07:18:56;59.65;;;24.48;;
21860;SDS011;11095;48.066;8.540;2022-12-10T07:21:23;65.22;;;25.75;;
21860;SDS011;11095;48.066;8.540;2022-12-10T07:23:51;64.68;;;26.05;;
21860;SDS011;11095;48.066;8.540;2022-12-10T07:26:18;70.05;;;27.10;;
21860;SDS011;11095;48.066;8.540;2022-12-10T07:28:45;66.18;;;25.52;;
21860;SDS011;11095;48.066;8.540;2022-12-10T07:31:11;72.60;;;26.88;;
21860;SDS011;11095;48.066;8.540;2022-12-10T07:33:36;72.22;;;26.50;;
21860;SDS011;11095;48.066;8.540;2022-12-10T07:36:03;78.55;;;27.70;;
21860;SDS011;11095;48.066;8.540;2022-12-10T07:38:33;79.10;;;27.38;;
21860;SDS011;11095;48.066;8.540;2022-12-10T07:41:02;76.82;;;28.48;;
21860;SDS011;11095;48.066;8.540;2022-12-10T07:43:36;77.60;;;28.27;;
21860;SDS011;11095;48.066;8.540;2022-12-10T07:46:10;81.43;;;28.90;;
21860;SDS011;11095;48.066;8.540;2022-12-10T07:48:42;78.83;;;28.13;;
21860;SDS011;11095;48.066;8.540;2022-12-10T07:51:09;72.68;;;27.63;;
21860;SDS011;11095;48.066;8.540;2022-12-10T07:53:35;69.32;;;26.80;;
21860;SDS011;11095;48.066;8.540;2022-12-10T07:56:02;76.65;;;28.23;;
21860;SDS011;11095;48.066;8.540;2022-12-10T07:58:28;70.80;;;28.15;;
21860;SDS011;11095;48.066;8.540;2022-12-10T08:00:54;61.03;;;25.80;;
21860;SDS011;11095;48.066;8.540;2022-12-10T08:03:20;69.00;;;26.73;;
21860;SDS011;11095;48.066;8.540;2022-12-10T08:05:46;65.90;;;27.75;;
21860;SDS011;11095;48.066;8.540;2022-12-10T08:08:11;63.05;;;25.40;;
21860;SDS011;11095;48.066;8.540;2022-12-10T08:10:37;67.35;;;25.88;;
21860;SDS011;11095;48.066;8.540;2022-12-10T08:13:03;63.88;;;25.55;;
21860;SDS011;11095;48.066;8.540;2022-12-10T08:15:29;63.78;;;26.10;;
21860;SDS011;11095;48.066;8.540;2022-12-10T08:17:56;64.40;;;26.73;;
21860;SDS011;11095;48.066;8.540;2022-12-10T08:20:22;58.92;;;25.67;;
21860;SDS011;11095;48.066;8.540;2022-12-10T08:22:49;57.70;;;25.15;;
21860;SDS011;11095;48.066;8.540;2022-12-10T08:25:15;60.50;;;25.45;;
21860;SDS011;11095;48.066;8.540;2022-12-10T08:27:41;57.70;;;24.85;;
21860;SDS011;11095;48.066;8.540;2022-12-10T08:30:06;56.75;;;25.15;;
21860;SDS011;11095;48.066;8.540;2022-12-10T08:32:34;55.25;;;22.50;;
21860;SDS011;11095;48.066;8.540;2022-12-10T08:34:59;48.85;;;22.45;;
21860;SDS011;11095;48.066;8.540;2022-12-10T08:37:25;55.13;;;23.73;;
21860;SDS011;11095;48.066;8.540;2022-12-10T08:39:51;48.88;;;22.55;;
21860;SDS011;11095;48.066;8.540;2022-12-10T08:42:16;47.58;;;21.58;;
21860;SDS011;11095;48.066;8.540;2022-12-10T08:44:42;46.45;;;21.70;;
21860;SDS011;11095;48.066;8.540;2022-12-10T08:47:08;43.78;;;21.05;;
21860;SDS011;11095;48.066;8.540;2022-12-10T08:49:33;45.13;;;21.35;;
21860;SDS011;11095;48.066;8.540;2022-12-10T08:51:59;41.53;;;20.13;;
21860;SDS011;11095;48.066;8.540;2022-12-10T08:54:25;44.15;;;20.73;;
21860;SDS011;11095;48.066;8.540;2022-12-10T08:56:50;41.03;;;20.75;;
21860;SDS011;11095;48.066;8.540;2022-12-10T08:59:16;40.10;;;19.20;;
21860;SDS011;11095;48.066;8.540;2022-12-10T09:01:42;40.92;;;20.95;;
21860;SDS011;11095;48.066;8.540;2022-12-10T09:04:08;38.20;;;20.40;;
21860;SDS011;11095;48.066;8.540;2022-12-10T09:06:34;39.78;;;20.20;;
21860;SDS011;11095;48.066;8.540;2022-12-10T09:09:00;38.40;;;19.80;;
21860;SDS011;11095;48.066;8.540;2022-12-10T09:11:30;37.80;;;19.00;;
21860;SDS011;11095;48.066;8.540;2022-12-10T09:13:58;41.28;;;20.95;;
21860;SDS011;11095;48.066;8.540;2022-12-10T09:16:34;40.72;;;20.33;;
21860;SDS011;11095;48.066;8.540;2022-12-10T09:19:01;38.70;;;20.05;;
21860;SDS011;11095;48.066;8.540;2022-12-10T09:21:28;39.13;;;19.73;;
21860;SDS011;11095;48.066;8.540;2022-12-10T09:23:55;39.47;;;20.05;;
21860;SDS011;11095;48.066;8.540;2022-12-10T09:26:21;36.63;;;19.92;;
21860;SDS011;11095;48.066;8.540;2022-12-10T09:28:47;36.30;;;19.48;;
21860;SDS011;11095;48.066;8.540;2022-12-10T09:31:13;38.33;;;19.65;;
21860;SDS011;11095;48.066;8.540;2022-12-10T09:33:40;35.83;;;19.45;;
21860;SDS011;11095;48.066;8.540;2022-12-10T09:36:07;34.40;;;18.25;;
21860;SDS011;11095;48.066;8.540;2022-12-10T09:38:35;36.60;;;19.13;;
21860;SDS011;11095;48.066;8.540;2022-12-10T09:41:03;33.38;;;19.25;;
21860;SDS011;11095;48.066;8.540;2022-12-10T09:51:57;37.15;;;20.52;;
21860;SDS011;11095;48.066;8.540;2022-12-10T09:56:59;38.65;;;20.73;;
21860;SDS011;11095;48.066;8.540;2022-12-10T09:59:30;40.80;;;21.88;;
21860;SDS011;11095;48.066;8.540;2022-12-10T10:02:24;42.53;;;22.65;;
21860;SDS011;11095;48.066;8.540;2022-12-10T10:05:06;42.85;;;23.35;;
21860;SDS011;11095;48.066;8.540;2022-12-10T10:07:32;48.00;;;24.98;;
21860;SDS011;11095;48.066;8.540;2022-12-10T10:10:04;50.00;;;25.45;;
21860;SDS011;11095;48.066;8.540;2022-12-10T10:12:33;46.25;;;24.38;;
21860;SDS011;11095;48.066;8.540;2022-12-10T10:14:59;41.17;;;21.95;;
21860;SDS011;11095;48.066;8.540;2022-12-10T10:17:37;47.22;;;24.95;;
21860;SDS011;11095;48.066;8.540;2022-12-10T10:20:04;43.78;;;24.05;;
21860;SDS011;11095;48.066;8.540;2022-12-10T10:22:30;43.15;;;22.60;;
21860;SDS011;11095;48.066;8.540;2022-12-10T10:24:56;47.35;;;25.58;;
21860;SDS011;11095;48.066;8.540;2022-12-10T10:27:24;50.00;;;25.83;;
21860;SDS011;11095;48.066;8.540;2022-12-10T10:29:54;47.33;;;25.77;;
21860;SDS011;11095;48.066;8.540;2022-12-10T10:32:22;43.92;;;24.75;;
21860;SDS011;11095;48.066;8.540;2022-12-10T10:37:48;42.58;;;23.70;;
21860;SDS011;11095;48.066;8.540;2022-12-10T10:41:01;41.85;;;23.48;;
21860;SDS011;11095;48.066;8.540;2022-12-10T10:43:01;45.20;;;25.92;;
21860;SDS011;11095;48.066;8.540;2022-12-10T10:45:31;42.45;;;23.48;;
21860;SDS011;11095;48.066;8.540;2022-12-10T10:48:17;41.42;;;24.27;;
21860;SDS011;11095;48.066;8.540;2022-12-10T10:53:22;41.15;;;23.10;;
21860;SDS011;11095;48.066;8.540;2022-12-10T10:56:15;41.10;;;22.92;;
21860;SDS011;11095;48.066;8.540;2022-12-10T10:59:03;41.35;;;22.98;;
21860;SDS011;11095;48.066;8.540;2022-12-10T11:02:01;41.70;;;23.08;;
21860;SDS011;11095;48.066;8.540;2022-12-10T11:04:50;40.58;;;22.17;;
21860;SDS011;11095;48.066;8.540;2022-12-10T11:07:37;41.80;;;22.95;;
21860;SDS011;11095;48.066;8.540;2022-12-10T11:10:21;38.17;;;21.80;;
21860;SDS011;11095;48.066;8.540;2022-12-10T11:17:58;43.13;;;23.98;;
21860;SDS011;11095;48.066;8.540;2022-12-10T11:20:32;40.30;;;22.23;;
21860;SDS011;11095;48.066;8.540;2022-12-10T11:23:02;42.88;;;23.23;;
21860;SDS011;11095;48.066;8.540;2022-12-10T11:28:42;38.03;;;21.38;;
21860;SDS011;11095;48.066;8.540;2022-12-10T11:41:53;40.50;;;22.10;;
21860;SDS011;11095;48.066;8.540;2022-12-10T11:44:25;35.75;;;19.27;;
21860;SDS011;11095;48.066;8.540;2022-12-10T12:02:47;27.55;;;16.15;;
21860;SDS011;11095;48.066;8.540;2022-12-10T12:05:44;28.13;;;16.15;;
21860;SDS011;11095;48.066;8.540;2022-12-10T12:13:43;32.20;;;17.92;;
21860;SDS011;11095;48.066;8.540;2022-12-10T12:16:46;35.10;;;18.73;;
21860;SDS011;11095;48.066;8.540;2022-12-10T12:19:39;31.60;;;18.07;;
21860;SDS011;11095;48.066;8.540;2022-12-10T12:22:15;30.73;;;18.00;;
21860;SDS011;11095;48.066;8.540;2022-12-10T12:24:47;35.25;;;18.65;;
21860;SDS011;11095;48.066;8.540;2022-12-10T12:27:19;39.35;;;18.10;;
21860;SDS011;11095;48.066;8.540;2022-12-10T12:30:00;29.35;;;16.83;;
21860;SDS011;11095;48.066;8.540;2022-12-10T12:32:45;27.20;;;15.90;;
21860;SDS011;11095;48.066;8.540;2022-12-10T12:35:42;23.70;;;13.10;;
21860;SDS011;11095;48.066;8.540;2022-12-10T12:46:54;24.98;;;13.32;;
21860;SDS011;11095;48.066;8.540;2022-12-10T12:49:28;22.13;;;13.30;;
21860;SDS011;11095;48.066;8.540;2022-12-10T12:52:05;19.88;;;11.68;;
21860;SDS011;11095;48.066;8.540;2022-12-10T12:54:50;19.58;;;11.43;;
21860;SDS011;11095;48.066;8.540;2022-12-10T12:57:23;21.25;;;12.80;;
21860;SDS011;11095;48.066;8.540;2022-12-10T13:05:05;21.70;;;12.07;;
21860;SDS011;11095;48.066;8.540;2022-12-10T13:07:37;20.67;;;11.38;;
21860;SDS011;11095;48.066;8.540;2022-12-10T13:12:32;24.13;;;13.37;;
21860;SDS011;11095;48.066;8.540;2022-12-10T13:15:17;26.13;;;15.50;;
21860;SDS011;11095;48.066;8.540;2022-12-10T13:20:45;26.02;;;15.05;;
21860;SDS011;11095;48.066;8.540;2022-12-10T13:28:26;30.20;;;17.10;;
21860;SDS011;11095;48.066;8.540;2022-12-10T13:36:19;30.73;;;16.38;;
21860;SDS011;11095;48.066;8.540;2022-12-10T13:41:27;33.33;;;17.77;;
21860;SDS011;11095;48.066;8.540;2022-12-10T13:49:27;38.55;;;19.60;;
21860;SDS011;11095;48.066;8.540;2022-12-10T13:51:55;29.35;;;17.30;;
21860;SDS011;11095;48.066;8.540;2022-12-10T13:57:45;31.27;;;18.42;;
21860;SDS011;11095;48.066;8.540;2022-12-10T14:00:16;32.05;;;17.52;;
21860;SDS011;11095;48.066;8.540;2022-12-10T14:02:50;35.25;;;18.63;;
21860;SDS011;11095;48.066;8.540;2022-12-10T14:05:33;36.75;;;19.02;;
21860;SDS011;11095;48.066;8.540;2022-12-10T14:08:20;34.40;;;19.40;;
21860;SDS011;11095;48.066;8.540;2022-12-10T14:10:55;36.42;;;19.58;;
21860;SDS011;11095;48.066;8.540;2022-12-10T14:13:31;37.30;;;19.73;;
21860;SDS011;11095;48.066;8.540;2022-12-10T14:16:00;36.22;;;20.40;;
21860;SDS011;11095;48.066;8.540;2022-12-10T14:20:55;35.05;;;19.40;;
21860;SDS011;11095;48.066;8.540;2022-12-10T14:23:28;40.05;;;21.70;;
21860;SDS011;11095;48.066;8.540;2022-12-10T14:25:58;36.00;;;19.98;;
21860;SDS011;11095;48.066;8.540;2022-12-10T14:28:29;41.58;;;23.20;;
21860;SDS011;11095;48.066;8.540;2022-12-10T14:30:58;38.92;;;19.58;;
21860;SDS011;11095;48.066;8.540;2022-12-10T14:33:24;27.70;;;16.10;;
21860;SDS011;11095;48.066;8.540;2022-12-10T14:35:51;33.28;;;18.27;;
21860;SDS011;11095;48.066;8.540;2022-12-10T14:38:27;25.98;;;15.13;;
21860;SDS011;11095;48.066;8.540;2022-12-10T14:40:58;24.55;;;14.00;;
21860;SDS011;11095;48.066;8.540;2022-12-10T14:43:46;20.42;;;12.25;;
21860;SDS011;11095;48.066;8.540;2022-12-10T14:46:16;18.95;;;11.07;;
21860;SDS011;11095;48.066;8.540;2022-12-10T14:48:52;18.50;;;10.02;;
21860;SDS011;11095;48.066;8.540;2022-12-10T14:51:20;17.77;;;10.52;;
21860;SDS011;11095;48.066;8.540;2022-12-10T14:53:50;16.52;;;10.43;;
21860;SDS011;11095;48.066;8.540;2022-12-10T14:56:20;16.45;;;9.25;;
21860;SDS011;11095;48.066;8.540;2022-12-10T14:59:32;17.33;;;10.63;;
21860;SDS011;11095;48.066;8.540;2022-12-10T15:01:42;21.10;;;10.75;;
21860;SDS011;11095;48.066;8.540;2022-12-10T15:04:12;18.90;;;10.40;;
21860;SDS011;11095;48.066;8.540;2022-12-10T15:06:40;19.73;;;11.13;;
21860;SDS011;11095;48.066;8.540;2022-12-10T15:09:22;17.23;;;10.60;;
21860;SDS011;11095;48.066;8.540;2022-12-10T15:11:54;21.58;;;11.82;;
21860;SDS011;11095;48.066;8.540;2022-12-10T15:14:24;22.33;;;12.52;;
21860;SDS011;11095;48.066;8.540;2022-12-10T15:16:51;20.00;;;11.77;;
21860;SDS011;11095;48.066;8.540;2022-12-10T15:19:25;25.23;;;13.88;;
21860;SDS011;11095;48.066;8.540;2022-12-10T15:22:19;23.77;;;13.32;;
21860;SDS011;11095;48.066;8.540;2022-12-10T15:24:44;23.15;;;13.20;;
21860;SDS011;11095;48.066;8.540;2022-12-10T15:27:18;23.55;;;13.38;;
21860;SDS011;11095;48.066;8.540;2022-12-10T15:29:45;25.98;;;14.90;;
21860;SDS011;11095;48.066;8.540;2022-12-10T15:34:45;26.73;;;14.68;;
21860;SDS011;11095;48.066;8.540;2022-12-10T15:37:20;26.17;;;14.85;;
21860;SDS011;11095;48.066;8.540;2022-12-10T15:39:49;28.95;;;15.30;;
21860;SDS011;11095;48.066;8.540;2022-12-10T15:42:27;25.42;;;14.05;;
21860;SDS011;11095;48.066;8.540;2022-12-10T15:44:54;38.40;;;19.48;;
21860;SDS011;11095;48.066;8.540;2022-12-10T15:47:25;31.95;;;17.45;;
21860;SDS011;11095;48.066;8.540;2022-12-10T15:49:54;24.83;;;13.88;;
21860;SDS011;11095;48.066;8.540;2022-12-10T15:52:28;23.08;;;13.13;;
21860;SDS011;11095;48.066;8.540;2022-12-10T15:54:56;24.48;;;13.07;;
21860;SDS011;11095;48.066;8.540;2022-12-10T15:57:32;22.98;;;12.68;;
21860;SDS011;11095;48.066;8.540;2022-12-10T16:00:01;26.27;;;15.02;;
21860;SDS011;11095;48.066;8.540;2022-12-10T16:05:15;23.20;;;14.10;;
21860;SDS011;11095;48.066;8.540;2022-12-10T16:07:44;21.80;;;12.07;;
21860;SDS011;11095;48.066;8.540;2022-12-10T16:10:12;22.70;;;12.70;;
21860;SDS011;11095;48.066;8.540;2022-12-10T16:12:38;16.85;;;9.98;;
21860;SDS011;11095;48.066;8.540;2022-12-10T16:15:06;22.30;;;13.23;;
21860;SDS011;11095;48.066;8.540;2022-12-10T16:17:36;18.52;;;11.20;;
21860;SDS011;11095;48.066;8.540;2022-12-10T16:20:17;22.70;;;13.48;;
21860;SDS011;11095;48.066;8.540;2022-12-10T16:22:51;22.55;;;12.98;;
21860;SDS011;11095;48.066;8.540;2022-12-10T16:25:18;22.45;;;12.52;;
21860;SDS011;11095;48.066;8.540;2022-12-10T16:27:44;19.30;;;11.07;;
21860;SDS011;11095;48.066;8.540;2022-12-10T16:30:20;18.02;;;10.95;;
21860;SDS011;11095;48.066;8.540;2022-12-10T16:32:47;20.42;;;11.80;;
21860;SDS011;11095;48.066;8.540;2022-12-10T16:35:16;19.75;;;12.00;;
21860;SDS011;11095;48.066;8.540;2022-12-10T16:37:46;22.45;;;12.93;;
21860;SDS011;11095;48.066;8.540;2022-12-10T16:40:22;20.83;;;12.50;;
21860;SDS011;11095;48.066;8.540;2022-12-10T16:42:49;19.95;;;12.20;;
21860;SDS011;11095;48.066;8.540;2022-12-10T16:45:18;20.70;;;12.80;;
21860;SDS011;11095;48.066;8.540;2022-12-10T16:50:12;20.77;;;12.75;;
21860;SDS011;11095;48.066;8.540;2022-12-10T16:52:39;22.60;;;12.80;;
21860;SDS011;11095;48.066;8.540;2022-12-10T16:55:06;23.42;;;13.48;;
21860;SDS011;11095;48.066;8.540;2022-12-10T16:57:43;21.88;;;12.57;;